• Join FlightAware (Why Join?)
  • Login
  • US Flag 
10:27AM EDT


 

Airport Tracker/Info


-or-


 

Live Flight TrackerFlight Track Log ✈ EJA396 ✈ 13-May-2014 ✈ KPWM - KEGE

Flight Track Log - Related Links

Times and Time Zones

All times are in EDT time to prevent confusion due to time zone crossing. See the EJA396 flight status page for this flight to view local times or setup timezone preferences in your user account.

Time Position Orientation Groundspeed Altitude Reporting Facility
EDT Latitude Longitude Course Direction KTS MPH feet Rate Location/Type
02:20PM 43.6531 -70.2422 251° West 189 217 2,800  Level Boston Center
02:21PM 43.6983 -70.2119 26° Northeast 217 250 5,300 3,060 Climbing Boston Center
02:22PM 43.7500 -70.2744 319° Northwest 260 299 9,200 3,420 Climbing Boston Center
02:23PM 43.7656 -70.3758 282° West 265 305 12,400 3,000 Climbing Boston Center
02:25PM 43.7550 -70.4978 263° West 317 365 15,400 2,700 Climbing Boston Center
02:26PM 43.6922 -70.8979 251° West  Level FlightAware Approximate
02:26PM 43.7425 -70.6219 262° West 324 373 18,000  Level Boston Center
02:27PM 43.7317 -70.7503 263° West 327 376 20,900 2,400 Climbing Boston Center
02:28PM 43.7039 -70.8744 253° West 334 384 23,000 2,040 Climbing Boston Center
02:29PM 43.6178 -70.9692 219° Southwest 380 437 25,100 1,860 Climbing Boston Center
02:30PM 43.5533 -71.0822 232° Southwest 378 435 26,900 1,680 Climbing Boston Center
02:31PM 43.5464 -71.2258 266° West 377 434 28,600 1,620 Climbing Boston Center
02:32PM 43.5519 -71.3678 273° West 369 425 30,300 1,620 Climbing Boston Center
02:33PM 43.5589 -71.5092 274° West 369 425 32,000 1,620 Climbing Boston Center
02:34PM 43.5644 -71.6517 273° West 369 425 33,700 1,620 Climbing Boston Center
02:35PM 43.5708 -71.7931 274° West 369 425 35,400 1,680 Climbing Boston Center
02:36PM 43.5775 -71.9297 274° West 367 422 37,100 1,380 Climbing Boston Center
02:37PM 43.5839 -72.0658 274° West 360 414 38,300 960 Climbing Boston Center
02:38PM 43.5894 -72.2014 273° West 355 409 39,200 960 Climbing Boston Center
02:39PM 43.5964 -72.3675 273° West 358 412 40,300 840 Climbing Boston Center
02:40PM 43.6022 -72.5061 273° West 359 413 41,000 300 Climbing Boston Center
02:41PM 43.6075 -72.6494 273° West 371 427 41,000  Level Boston Center
02:42PM 43.6133 -72.7994 273° West 386 444 41,000  Level Boston Center
02:43PM 43.6186 -72.9547 273° West 399 459 41,000  Level Boston Center
02:44PM 43.6250 -73.1214 273° West 404 465 41,000  Level Boston Center
02:45PM 43.6300 -73.2781 273° West 407 468 41,000  Level Boston Center
02:46PM 43.6353 -73.4356 273° West 407 468 41,000  Level Boston Center
02:47PM 43.6397 -73.5925 272° West 408 470 41,000  Level Boston Center
02:48PM 43.6444 -73.7481 272° West 408 470 41,000  Level Boston Center
02:49PM 43.6486 -73.9044 272° West 408 470 41,000  Level Boston Center
02:50PM 43.6531 -74.0606 272° West 408 470 41,000  Level Boston Center
02:51PM 43.6575 -74.2244 272° West 408 470 41,000  Level Boston Center
02:52PM 43.6608 -74.3806 272° West 408 470 41,000  Level Boston Center
02:53PM 43.6644 -74.5378 272° West 409 471 41,000  Level Boston Center
02:54PM 43.6678 -74.6956 272° West 410 472 41,000  Level Boston Center
02:55PM 43.6719 -74.8850 272° West 413 475 41,000  Level Boston Center
02:56PM 43.6756 -75.0439 272° West 415 478 41,000 180 Level Boston Center
02:57PM 43.6778 -75.2008 271° West 415 478 41,400 420 Climbing Boston Center
02:58PM 43.6803 -75.3619 271° West 416 479 41,900 480 Climbing Boston Center
02:59PM 43.6822 -75.5153 271° West 414 476 42,400 480 Climbing Boston Center
03:00PM 43.6839 -75.6700 271° West 411 473 42,900 240 Climbing Boston Center
03:01PM 43.6858 -75.8250 271° West 407 468 43,000  Climbing Boston Center
03:02PM 43.6867 -76.0125 270° West 407 468 43,000  Level Boston Center
03:03PM 43.6894 -76.1725 271° West 413 475 43,000  Level Boston Center
03:04PM 43.6897 -76.3294 270° West 415 478 43,000  Level Boston Center
03:05PM 43.6903 -76.4883 270° West 415 478 43,000  Level Boston Center
03:06PM 43.6908 -76.6475 270° West 415 478 43,000  Level Boston Center
03:07PM 43.6914 -76.8244 270° West 415 478 43,000  Level Boston Center
03:09PM 43.6833 -76.9833 266° West 420 483 43,000  Level Toronto Center
03:10PM 43.6833 -77.1500 270° West 420 483 43,000  Level Toronto Center
03:11PM 43.6667 -77.3000 261° West 420 483 43,000  Level Toronto Center
03:12PM 43.6833 -77.4667 278° West 420 483 43,000  Level Toronto Center
03:13PM 43.6833 -77.6333 270° West 420 483 43,000  Level Toronto Center
03:14PM 43.6833 -77.7833 270° West 420 483 43,000  Level Toronto Center
03:15PM 43.6667 -77.9500 262° West 420 483 43,000  Level Toronto Center
03:16PM 43.6667 -78.1167 270° West 420 483 43,000  Level Toronto Center
03:17PM 43.6667 -78.2667 270° West 420 483 43,000  Level Toronto Center
03:18PM 43.6667 -78.4333 270° West 420 483 43,000  Level Toronto Center
03:19PM 43.6833 -78.6000 278° West 410 472 43,000  Level Toronto Center
03:20PM 43.6667 -78.7500 261° West 410 472 43,000  Level Toronto Center
03:21PM 43.6667 -78.9000 270° West 410 472 43,000  Level Toronto Center
03:22PM 43.6667 -79.0500 270° West 410 472 43,000  Level Toronto Center
03:23PM 43.6667 -79.2167 270° West 410 472 43,000  Level Toronto Center
03:24PM 43.6667 -79.3833 270° West 410 472 43,000  Level Toronto Center
03:25PM 43.6500 -79.5167 260° West 410 472 43,000  Level Toronto Center
03:26PM 43.6500 -79.7000 270° West 410 472 43,000  Level Toronto Center
03:27PM 43.6500 -79.8333 270° West 420 483 43,000  Level Toronto Center
03:28PM 43.6500 -80.0167 270° West 410 472 43,000  Level Toronto Center
03:29PM 43.6333 -80.1667 261° West 410 472 43,000  Level Toronto Center
03:30PM 43.6333 -80.3500 270° West 420 483 43,000  Level Toronto Center
03:31PM 43.6333 -80.5000 270° West 420 483 43,000  Level Toronto Center
03:32PM 43.6333 -80.6500 270° West 420 483 43,000  Level Toronto Center
03:33PM 43.6167 -80.8333 263° West 420 483 43,000  Level Toronto Center
03:34PM 43.6000 -80.9667 260° West 420 483 43,000  Level Toronto Center
03:35PM 43.6000 -81.1500 270° West 420 483 43,000  Level Toronto Center
03:36PM 43.6000 -81.2833 270° West 420 483 43,000  Level Toronto Center
03:37PM 43.6000 -81.4667 270° West 420 483 43,000  Level Toronto Center
03:38PM 43.5833 -81.6167 261° West 420 483 43,000  Level Toronto Center
03:39PM 43.5833 -81.8000 270° West 410 472 43,000  Level Toronto Center
03:40PM 43.5667 -81.9333 260° West 410 472 43,000  Level Toronto Center
03:41PM 43.5667 -82.1000 270° West 410 472 43,000  Level Toronto Center
03:42PM 43.5667 -82.2500 270° West 400 460 43,000  Level Toronto Center
03:43PM 43.5500 -82.4000 261° West 400 460 43,000  Level Toronto Center
03:44PM 43.5500 -82.5500 270° West 410 472 43,000  Level Toronto Center
03:45PM 43.5333 -82.7167 262° West 410 472 43,000  Level Toronto Center
03:46PM 43.5333 -82.8833 270° West 410 472 43,000 360 Level Toronto Center
03:47PM 43.5167 -83.0333 261° West 410 472 43,800 780 Climbing Toronto Center
03:48PM 43.5167 -83.2000 270° West 400 460 44,600 600 Climbing Toronto Center
03:49PM 43.5000 -83.3333 260° West 390 449 45,000 180 Climbing Toronto Center
03:50PM 43.5000 -83.4667 270° West 400 460 45,000  Level Toronto Center
03:51PM 43.5011 -83.6544 271° West 399 459 45,000  Level Minneapolis Center
03:52PM 43.4925 -83.8094 266° West 404 465 45,000  Level Minneapolis Center
03:53PM 43.4833 -83.9667 265° West 409 471 45,000  Level Minneapolis Center
03:54PM 43.4736 -84.1242 265° West 412 474 45,000  Level Minneapolis Center
03:55PM 43.4628 -84.2808 265° West 413 475 45,000  Level Minneapolis Center
03:56PM 43.4531 -84.4375 265° West 413 475 45,000  Level Minneapolis Center
03:57PM 43.4425 -84.5942 265° West 413 475 45,000  Level Minneapolis Center
03:58PM 43.4303 -84.7844 265° West 413 475 45,000  Level Minneapolis Center
03:59PM 43.4189 -84.9419 264° West 413 475 45,000  Level Minneapolis Center
04:00PM 43.4089 -85.0994 265° West 414 476 45,000  Level Minneapolis Center
04:01PM 43.4025 -85.1925 265° West 417 480 45,000  Level Chicago Center
04:02PM 43.3911 -85.3500 264° West 416 479 45,000  Level Chicago Center
04:03PM 43.3772 -85.5372 264° West 416 479 45,000  Level Chicago Center
04:04PM 43.3658 -85.6942 264° West 416 479 45,000  Level Chicago Center
04:05PM 43.3539 -85.8514 264° West 416 479 45,000  Level Chicago Center
04:06PM 43.3417 -86.0081 264° West 416 479 45,000  Level Chicago Center
04:07PM 43.3294 -86.1653 264° West 417 480 45,000  Level Chicago Center
04:08PM 43.3169 -86.3189 264° West 408 470 45,000  Level Chicago Center
04:09PM 43.3008 -86.5061 263° West 411 473 45,000  Level Chicago Center
04:10PM 43.2881 -86.6619 264° West 411 473 45,000  Level Chicago Center
04:11PM 43.2744 -86.8172 263° West 411 473 45,000  Level Chicago Center
04:12PM 43.2622 -86.9728 264° West 411 473 45,000  Level Chicago Center
04:13PM 43.2475 -87.1308 263° West 418 481 45,000  Level Chicago Center
04:14PM 43.2331 -87.2875 263° West 416 479 45,000  Level Chicago Center
04:15PM 43.2164 -87.4644 263° West 416 479 45,000  Level Chicago Center
04:16PM 43.2017 -87.6214 263° West 414 476 45,000  Level Chicago Center
04:17PM 43.1869 -87.7797 263° West 417 480 45,000  Level Chicago Center
04:18PM 43.1722 -87.9358 263° West 415 478 45,000  Level Chicago Center
04:19PM 43.1539 -88.1278 263° West 416 479 45,000  Level Chicago Center
04:20PM 43.1375 -88.2869 262° West 418 481 45,000  Level Chicago Center
04:21PM 43.1219 -88.4464 262° West 419 482 45,000  Level Chicago Center
04:22PM 43.1056 -88.6058 262° West 420 483 45,000  Level Chicago Center
04:23PM 43.0897 -88.7636 262° West 417 480 45,000  Level Chicago Center
04:24PM 43.0792 -88.9239 265° West 418 481 45,000  Level Chicago Center
04:25PM 43.0742 -89.0847 268° West 420 483 45,000  Level Chicago Center
04:26PM 43.0717 -89.2458 269° West 422 486 45,000  Level Chicago Center
04:27PM 43.0683 -89.4364 269° West 418 481 45,000  Level Chicago Center
04:28PM 43.0667 -89.5950 269° West 418 481 45,000  Level Chicago Center
04:29PM 43.0664 -89.7542 270° West 418 481 45,000  Level Chicago Center
04:30PM 43.0672 -89.9128 270° West 418 481 45,000  Level Chicago Center
04:31PM 43.0597 -90.0739 266° West 432 497 45,000  Level Chicago Center
04:32PM 43.0425 -90.2244 261° West 412 474 45,000  Level Chicago Center
04:33PM 43.0281 -90.3781 263° West 409 471 45,000  Level Chicago Center
04:35PM 43.0064 -90.5603 261° West 409 471 45,000  Level Chicago Center
04:35PM 42.9914 -90.6800 260° West 408 470 45,000  Level Chicago Center
04:36PM 42.9744 -90.8297 261° West 405 466 45,000  Level Chicago Center
04:37PM 42.9575 -90.9819 261° West 411 473 45,000  Level Chicago Center
04:38PM 42.9394 -91.1319 261° West 409 471 45,000  Level Chicago Center
04:39PM 42.9250 -91.2531 261° West 408 470 45,000  Level Minneapolis Center
04:40PM 42.9081 -91.4031 261° West 408 470 45,000  Level Minneapolis Center
04:41PM 42.8908 -91.5519 261° West 408 470 45,000  Level Minneapolis Center
04:42PM 42.8678 -91.7328 260° West 408 470 45,000  Level Minneapolis Center
04:43PM 42.8497 -91.8778 260° West 408 470 45,000  Level Minneapolis Center
04:44PM 42.8308 -92.0267 260° West 407 468 45,000  Level Minneapolis Center
04:45PM 42.8117 -92.1736 260° West 403 464 45,000  Level Minneapolis Center
04:46PM 42.7925 -92.3208 260° West 401 461 45,000  Level Minneapolis Center
04:47PM 42.7706 -92.4972 260° West 398 458 45,000  Level Minneapolis Center
04:48PM 42.7508 -92.6425 260° West 396 456 45,000  Level Minneapolis Center
04:49PM 42.7311 -92.7853 259° West 394 453 45,000  Level Minneapolis Center
04:50PM 42.7119 -92.9294 260° West 391 450 45,000  Level Minneapolis Center
04:52PM 42.6931 -93.0725 260° West 388 447 45,000  Level Minneapolis Center
04:53PM 42.6733 -93.2128 259° West 386 444 45,000  Level Minneapolis Center
04:54PM 42.6503 -93.3803 259° West 384 442 45,000  Level Minneapolis Center
04:55PM 42.6308 -93.5231 260° West 384 442 45,000  Level Minneapolis Center
04:56PM 42.6128 -93.6622 260° West 383 441 45,000  Level Minneapolis Center
04:57PM 42.5911 -93.8011 258° West 382 440 45,000  Level Minneapolis Center
04:58PM 42.5717 -93.9403 259° West 381 438 45,000  Level Minneapolis Center
04:59PM 42.5461 -94.1058 258° West 380 437 45,000  Level Minneapolis Center
05:00PM 42.5261 -94.2447 259° West 380 437 45,000  Level Minneapolis Center
05:01PM 42.5064 -94.3836 259° West 380 437 45,000  Level Minneapolis Center
05:02PM 42.4853 -94.5219 258° West 379 436 45,000  Level Minneapolis Center
05:03PM 42.4628 -94.6700 258° West 379 436 45,000  Level Minneapolis Center
05:04PM 42.4419 -94.8086 259° West 379 436 45,000  Level Minneapolis Center
05:05PM 42.4208 -94.9489 259° West 379 436 45,000  Level Minneapolis Center
05:06PM 42.3947 -95.1147 258° West 379 436 45,000  Level Minneapolis Center
05:07PM 42.3736 -95.2539 258° West 379 436 45,000  Level Minneapolis Center
05:08PM 42.3514 -95.3917 258° West 378 435 45,000  Level Minneapolis Center
05:09PM 42.3294 -95.5317 258° West 379 436 45,000  Level Minneapolis Center
05:10PM 42.3072 -95.6689 258° West 378 435 45,000  Level Minneapolis Center
05:11PM 42.2850 -95.8081 258° West 378 435 45,000  Level Minneapolis Center
05:12PM 42.2622 -95.9464 258° West 380 437 45,000  Level Minneapolis Center
05:13PM 42.2347 -96.1136 258° West 380 437 45,000  Level Minneapolis Center
05:14PM 42.2122 -96.2525 258° West 380 437 45,000  Level Minneapolis Center
05:15PM 42.1881 -96.3919 257° West 381 438 45,000  Level Minneapolis Center
05:16PM 42.1642 -96.5322 257° West 383 441 45,000  Level Minneapolis Center
05:17PM 42.1408 -96.6722 257° West 383 441 45,000  Level Minneapolis Center
05:18PM 42.1175 -96.8117 257° West 383 441 45,000  Level Minneapolis Center
05:19PM 42.0881 -96.9817 257° West 385 443 45,000  Level Minneapolis Center
05:20PM 42.0639 -97.1222 257° West 386 444 45,000 -300 Level Minneapolis Center
05:21PM 42.0383 -97.2628 256° West 386 444 44,500 -540 Descending Minneapolis Center
05:22PM 42.0131 -97.4083 257° West 397 457 43,900 -600 Descending Minneapolis Center
05:23PM 41.9869 -97.5575 257° West 405 466 43,300 -480 Descending Minneapolis Center
05:25PM 41.9600 -97.7075 256° West 411 473 43,000 -180 Descending Minneapolis Center
05:26PM 41.9317 -97.8572 256° West 412 474 43,000  Level Minneapolis Center
05:27PM 41.8997 -98.0350 256° West 411 473 43,000  Level Minneapolis Center
05:28PM 41.8753 -98.1692 256° West 411 473 43,000  Level Minneapolis Center
05:29PM 41.8481 -98.3189 256° West 411 473 43,000  Level Minneapolis Center
05:30PM 41.8147 -98.4956 256° West 411 473 43,000  Level Minneapolis Center
05:31PM 41.7872 -98.6433 256° West 411 473 43,000  Level Minneapolis Center
05:32PM 41.7581 -98.7922 255° West 411 473 43,000  Level Minneapolis Center
05:33PM 41.7303 -98.9394 256° West 411 473 43,000  Level Minneapolis Center
05:34PM 41.7022 -99.0872 256° West 411 473 43,000  Level Minneapolis Center
05:35PM 41.6739 -99.2342 256° West 411 473 43,000  Level Minneapolis Center
05:36PM 41.6444 -99.3819 255° West 412 474 43,000  Level Denver Center
05:37PM 41.6136 -99.5306 255° West 413 475 43,000  Level Denver Center
05:38PM 41.5786 -99.7078 255° West 413 475 43,000  Level Denver Center
05:39PM 41.5514 -99.8453 255° West 413 475 43,000  Level Denver Center
05:40PM 41.5183 -100.0114 255° West 413 475 43,000  Level Denver Center
05:41PM 41.4894 -100.1519 255° West 414 476 43,000  Level Denver Center
05:42PM 41.4458 -100.3125 250° West 414 476 43,000  Level Denver Center
05:43PM 41.4067 -100.4492 249° West 414 476 43,000  Level Denver Center
05:44PM 41.3592 -100.6094 248° West 415 478 43,000  Level Denver Center
05:45PM 41.3186 -100.7461 248° West 416 479 43,000  Level Denver Center
05:46PM 41.2717 -100.9061 249° West 418 481 43,000  Level Denver Center
05:47PM 41.2294 -101.0436 248° West 419 482 43,000  Level Denver Center
05:48PM 41.1886 -101.1828 249° West 421 484 43,000  Level Denver Center
05:49PM 41.1394 -101.3433 248° West 422 486 43,000 -120 Level Denver Center
05:50PM 41.0978 -101.4831 248° West 425 489 42,800 -960 Descending Denver Center
05:51PM 41.0469 -101.6497 248° West 434 499 41,100 -1,380 Descending Denver Center
05:52PM 41.0028 -101.7897 247° West 434 499 40,000 -540 Descending Denver Center
05:53PM 40.9536 -101.9497 248° West 425 489 40,000  Level Denver Center
05:54PM 40.9106 -102.0875 248° West 424 488 40,000  Level Denver Center
05:55PM 40.8600 -102.2508 248° West 429 494 40,000  Level Denver Center
05:56PM 40.8156 -102.3908 247° West 430 495 40,000  Level Denver Center
05:57PM 40.7644 -102.5536 248° West 430 495 40,000  Level Denver Center
05:58PM 40.7203 -102.6936 247° West 430 495 40,000  Level Denver Center
05:59PM 40.6711 -102.8464 247° West 431 496 40,000  Level Denver Center
06:00PM 40.6258 -102.9903 248° West 430 495 40,000  Level Denver Center
06:02PM 40.5781 -103.1356 247° West 431 496 40,000  Level Denver Center
06:03PM 40.5319 -103.2778 247° West 426 490 40,000  Level Denver Center
06:04PM 40.4842 -103.4231 247° West 430 495 40,000 -1,260 Level Denver Center
06:05PM 40.4283 -103.5944 247° West 428 493 37,500 -2,280 Descending Denver Center
06:06PM 40.3814 -103.7392 247° West 431 496 35,300 -2,220 Descending Denver Center
06:07PM 40.3331 -103.8814 246° West 431 496 33,000 -1,620 Descending Denver Center
06:08PM 40.2842 -104.0267 246° West 433 498 32,000 -540 Descending Denver Center
06:09PM 40.2339 -104.1781 247° West 447 514 32,000  Level Denver Center
06:10PM 40.1842 -104.3294 247° West 451 519 32,000  Level Denver Center
06:11PM 40.1231 -104.5092 246° West 452 520 32,000  Level Denver Center
06:12PM 40.0711 -104.6608 246° West 456 525 32,000 -540 Level Denver Center
06:13PM 40.0353 -104.8117 253° West 442 509 31,000 -1,260 Descending Denver Center
06:14PM 40.0333 -104.9589 269° West 415 478 29,500 -1,500 Descending Denver Center
06:15PM 40.0300 -105.1114 268° West 418 481 28,000 -1,620 Descending Denver Center
06:16PM 40.0269 -105.2956 269° West 425 489 26,200 -1,620 Descending Denver Center
06:17PM 40.0247 -105.4453 269° West 422 486 24,700 -1,080 Descending Denver Center
06:18PM 40.0217 -105.5936 269° West 415 478 24,000 -360 Descending Denver Center
06:19PM 40.0181 -105.7431 268° West 414 476 24,000  Level Denver Center
06:20PM 40.0158 -105.8881 269° West 405 466 24,000  Level Denver Center
06:21PM 40.0111 -106.0617 268° West 403 464 24,000 -840 Level Denver Center
06:22PM 40.0081 -106.2042 268° West 399 459 22,300 -1,800 Descending Denver Center
06:23PM 40.0050 -106.3342 268° West 390 449 20,400 -1,980 Descending Denver Center
06:24PM 39.9536 -106.4528 241° Southwest 387 445 18,300 -2,040 Descending Denver Center
06:25PM 39.8600 -106.5028 202° Southwest 369 425 16,300 -1,860 Descending Denver Center
06:26PM 39.7756 -106.5383 198° South 332 382 14,500 -1,680 Descending Denver Center
06:27PM 39.6986 -106.5797 202° Southwest 256 295 12,900 -1,500 Descending Denver Center
06:28PM 39.6808 -106.6569 253° West 236 272 11,400 -1,380 Descending Denver Center
06:29PM 39.6708 -106.7242 259° West 196 226 10,100 -1,200 Descending Denver Center
06:30PM 39.6622 -106.7775 258° West 160 184 9,000 -1,020 Descending Denver Center
06:31PM 39.6522 -106.8297 256° West 156 180 8,000 -1,020 Descending Denver Center
06:32PM 39.6458 -106.8806 261° West 149 171 7,000 -780 Descending Denver Center
06:34PM 39.6419 -106.9217 263° West 117 135 6,500 -540 Descending Denver Center
06:36PM 39.6427 -106.9159 90° East  Level Estimated